createdAt,value
2023-03-30T00:02:18.788Z,80.80
2023-03-30T00:04:43.572Z,80.60
2023-03-30T00:07:08.321Z,80.70
2023-03-30T00:09:33.170Z,80.80
2023-03-30T00:11:56.612Z,81.00
2023-03-30T00:14:22.743Z,81.30
2023-03-30T00:16:46.127Z,80.90
2023-03-30T00:19:09.383Z,80.50
2023-03-30T00:21:34.893Z,80.30
2023-03-30T00:23:58.189Z,80.30
2023-03-30T00:26:22.299Z,80.70
2023-03-30T00:28:47.149Z,80.70
2023-03-30T00:31:11.395Z,80.80
2023-03-30T00:33:45.581Z,80.80
2023-03-30T00:36:10.988Z,81.10
2023-03-30T00:38:35.641Z,80.80
2023-03-30T00:41:02.003Z,80.80
2023-03-30T00:43:27.324Z,80.80
2023-03-30T00:45:51.901Z,80.90
2023-03-30T00:48:18.926Z,80.60
2023-03-30T00:50:48.272Z,80.50
2023-03-30T00:53:17.336Z,80.70
2023-03-30T00:55:42.279Z,80.90
2023-03-30T00:58:07.643Z,80.50
2023-03-30T01:00:31.015Z,80.20
2023-03-30T01:02:59.346Z,79.50
2023-03-30T01:05:24.205Z,79.60
2023-03-30T01:07:50.016Z,80.00
2023-03-30T01:10:14.000Z,80.50
2023-03-30T01:12:39.323Z,80.70
2023-03-30T01:15:02.666Z,81.60
2023-03-30T01:17:33.359Z,81.50
2023-03-30T01:20:46.952Z,82.00
2023-03-30T01:24:03.976Z,81.80
2023-03-30T01:26:47.000Z,82.00
2023-03-30T01:29:24.703Z,82.10
2023-03-30T01:32:35.760Z,81.40
2023-03-30T01:35:49.237Z,80.40
2023-03-30T01:39:02.424Z,80.90
2023-03-30T01:41:35.134Z,80.80
2023-03-30T01:44:05.318Z,80.50
2023-03-30T01:46:33.861Z,79.50
2023-03-30T01:49:04.555Z,80.10
2023-03-30T01:51:33.239Z,78.60
2023-03-30T01:54:02.074Z,78.20
2023-03-30T01:56:31.331Z,78.40
2023-03-30T01:59:00.237Z,77.40
2023-03-30T02:01:26.052Z,77.50
2023-03-30T02:03:55.115Z,77.50
2023-03-30T02:06:24.525Z,76.90
2023-03-30T02:08:51.757Z,76.70
2023-03-30T02:11:15.410Z,76.90
2023-03-30T02:13:42.126Z,76.40
2023-03-30T02:16:12.753Z,76.50
2023-03-30T02:18:41.196Z,75.80
2023-03-30T02:21:05.184Z,74.80
2023-03-30T02:23:35.219Z,73.90
2023-03-30T02:25:59.442Z,74.20
2023-03-30T02:28:22.746Z,73.10
2023-03-30T02:30:48.637Z,73.20
2023-03-30T02:33:22.912Z,73.20
2023-03-30T02:36:04.925Z,73.50
2023-03-30T02:38:54.277Z,74.10
2023-03-30T02:41:33.537Z,73.70
2023-03-30T02:44:06.579Z,73.90
2023-03-30T02:47:01.657Z,74.30
2023-03-30T02:49:43.494Z,75.20
2023-03-30T02:52:14.263Z,74.10
2023-03-30T02:54:51.767Z,73.20
2023-03-30T02:57:28.764Z,74.00
2023-03-30T03:00:13.062Z,74.60
2023-03-30T03:02:42.351Z,75.80
2023-03-30T03:05:21.501Z,75.30
2023-03-30T03:07:52.100Z,75.30
2023-03-30T03:10:15.974Z,76.20
2023-03-30T03:12:39.317Z,76.00
2023-03-30T03:15:03.600Z,76.20
2023-03-30T03:17:29.624Z,75.90
2023-03-30T03:19:54.345Z,74.70
2023-03-30T03:22:18.318Z,74.60
2023-03-30T03:24:42.380Z,74.60
2023-03-30T03:27:11.992Z,74.30
2023-03-30T03:29:54.282Z,74.00
2023-03-30T03:32:17.982Z,74.50
2023-03-30T03:34:44.770Z,74.90
2023-03-30T03:37:10.725Z,75.40
2023-03-30T03:39:35.715Z,75.60
2023-03-30T03:42:04.716Z,76.80
2023-03-30T03:44:28.198Z,77.30
2023-03-30T03:46:51.750Z,76.80
2023-03-30T03:49:15.385Z,76.40
2023-03-30T03:51:38.976Z,76.40
2023-03-30T03:54:03.843Z,78.10
2023-03-30T03:56:27.669Z,77.40
2023-03-30T03:58:52.056Z,78.20
2023-03-30T04:01:15.376Z,78.10
2023-03-30T04:03:38.640Z,78.40
2023-03-30T04:06:03.513Z,78.70
2023-03-30T04:08:28.591Z,78.60
2023-03-30T04:10:57.484Z,79.40
2023-03-30T04:13:33.380Z,79.90
2023-03-30T04:16:15.595Z,80.20
2023-03-30T04:19:09.140Z,80.50
2023-03-30T04:21:47.044Z,80.40
2023-03-30T04:24:20.165Z,80.80
2023-03-30T04:27:09.679Z,81.80
2023-03-30T04:29:57.606Z,81.40
2023-03-30T04:32:41.356Z,81.50
2023-03-30T04:35:23.314Z,81.30
2023-03-30T04:38:06.199Z,81.20
2023-03-30T04:40:55.816Z,82.20
2023-03-30T04:43:45.644Z,82.30
2023-03-30T04:46:39.764Z,82.90
2023-03-30T04:49:03.589Z,82.00
2023-03-30T04:51:54.634Z,80.80
2023-03-30T04:54:50.571Z,79.40
2023-03-30T04:57:32.535Z,78.50
2023-03-30T05:00:12.291Z,78.30
2023-03-30T05:02:47.679Z,77.00
2023-03-30T05:05:29.833Z,76.70
2023-03-30T05:08:11.762Z,76.80
2023-03-30T05:10:58.584Z,76.60
2023-03-30T05:13:40.520Z,76.70
2023-03-30T05:16:24.079Z,75.90
2023-03-30T05:19:20.042Z,73.90
2023-03-30T05:22:03.626Z,73.90
2023-03-30T05:24:27.093Z,73.80
2023-03-30T05:27:22.523Z,74.70
2023-03-30T05:30:20.976Z,73.50
2023-03-30T05:33:05.190Z,71.40
2023-03-30T05:35:44.946Z,71.00
2023-03-30T05:38:21.712Z,70.00
2023-03-30T05:41:06.759Z,70.10
2023-03-30T05:43:45.772Z,70.30
2023-03-30T05:46:23.274Z,70.90
2023-03-30T05:49:11.911Z,70.80
2023-03-30T05:51:48.118Z,71.50
2023-03-30T05:54:37.377Z,70.90
2023-03-30T05:57:10.785Z,70.60
2023-03-30T05:59:54.605Z,69.90
2023-03-30T06:02:24.558Z,71.50
2023-03-30T06:04:54.335Z,71.10
2023-03-30T06:07:18.416Z,71.00
2023-03-30T06:09:42.229Z,70.90
2023-03-30T06:12:15.084Z,70.70
2023-03-30T06:14:38.580Z,70.80
2023-03-30T06:17:37.815Z,70.20
2023-03-30T06:20:08.366Z,70.60
2023-03-30T06:22:32.578Z,70.90
2023-03-30T06:25:13.555Z,72.20
2023-03-30T06:27:38.296Z,71.80
2023-03-30T06:30:01.712Z,72.10
2023-03-30T06:32:25.318Z,71.40
2023-03-30T06:35:13.360Z,71.20
2023-03-30T06:37:37.177Z,71.40
2023-03-30T06:40:00.887Z,71.60
2023-03-30T06:42:24.231Z,72.00
2023-03-30T06:44:59.329Z,72.70
2023-03-30T06:47:23.224Z,72.10
2023-03-30T06:49:48.415Z,71.80
2023-03-30T06:52:51.623Z,71.20
2023-03-30T06:55:16.930Z,72.50
2023-03-30T06:57:40.253Z,71.00
2023-03-30T07:00:06.521Z,72.60
2023-03-30T07:02:35.691Z,70.30
2023-03-30T07:05:19.278Z,71.10
2023-03-30T07:07:51.722Z,70.00
2023-03-30T07:10:15.230Z,69.60
2023-03-30T07:12:38.798Z,69.50
2023-03-30T07:15:03.164Z,70.10
2023-03-30T07:17:27.607Z,70.20
2023-03-30T07:19:51.043Z,70.30
2023-03-30T07:22:14.465Z,69.80
2023-03-30T07:24:39.391Z,71.00
2023-03-30T07:27:02.880Z,70.30
2023-03-30T07:29:28.827Z,70.30
2023-03-30T07:31:53.040Z,71.50
2023-03-30T07:34:18.290Z,80.70
2023-03-30T07:36:47.603Z,83.60
2023-03-30T07:39:11.271Z,83.30
2023-03-30T07:41:38.011Z,82.00
2023-03-30T07:44:01.621Z,83.10
2023-03-30T07:46:25.258Z,82.20
2023-03-30T07:48:51.230Z,82.50
2023-03-30T07:51:16.122Z,81.50
2023-03-30T07:53:49.716Z,81.20
2023-03-30T07:56:20.192Z,80.90
2023-03-30T07:58:46.628Z,80.10
2023-03-30T08:01:11.081Z,78.50
2023-03-30T08:04:05.012Z,77.60
2023-03-30T08:06:32.621Z,79.40
2023-03-30T08:08:57.265Z,77.40
2023-03-30T08:11:20.909Z,77.50
2023-03-30T08:13:45.979Z,76.50
2023-03-30T08:16:09.978Z,76.70
2023-03-30T08:18:33.366Z,76.60
2023-03-30T08:20:56.674Z,76.90
2023-03-30T08:23:20.444Z,76.80
2023-03-30T08:25:45.341Z,75.80
2023-03-30T08:28:10.298Z,75.00
2023-03-30T08:30:35.109Z,75.50
2023-03-30T08:32:58.558Z,75.70
2023-03-30T08:35:22.345Z,75.90
2023-03-30T08:37:45.789Z,75.20
2023-03-30T08:40:12.839Z,73.60
2023-03-30T08:43:30.524Z,74.20
2023-03-30T08:45:55.247Z,73.70
2023-03-30T08:48:22.060Z,73.00
2023-03-30T08:50:55.215Z,71.90
2023-03-30T08:53:19.087Z,72.30
2023-03-30T08:55:47.676Z,73.10
2023-03-30T08:58:22.238Z,73.00
2023-03-30T09:00:49.617Z,73.40
2023-03-30T09:03:21.717Z,71.60
2023-03-30T09:05:52.659Z,71.50
2023-03-30T09:08:20.120Z,71.50
2023-03-30T09:10:48.655Z,71.20
2023-03-30T09:13:16.881Z,72.70
2023-03-30T09:15:46.743Z,72.80
2023-03-30T09:18:19.485Z,73.60
2023-03-30T09:20:46.054Z,72.50
2023-03-30T09:23:15.584Z,72.50
2023-03-30T09:25:47.343Z,71.20
2023-03-30T09:28:18.811Z,71.30
2023-03-30T09:30:44.940Z,69.90
2023-03-30T09:33:27.166Z,69.10
2023-03-30T09:36:05.657Z,68.50
2023-03-30T09:38:31.019Z,68.90
2023-03-30T09:41:08.430Z,69.40
2023-03-30T09:43:37.470Z,70.90
2023-03-30T09:46:03.758Z,71.90
2023-03-30T09:48:28.678Z,73.60
2023-03-30T09:50:52.033Z,73.30
2023-03-30T09:53:26.006Z,73.60
2023-03-30T09:56:00.736Z,72.60
2023-03-30T09:58:29.967Z,72.20
2023-03-30T10:01:06.780Z,72.70
2023-03-30T10:03:31.642Z,70.60
2023-03-30T10:06:06.224Z,69.00
2023-03-30T10:08:30.164Z,69.00
2023-03-30T10:10:56.272Z,68.50
2023-03-30T10:13:20.500Z,70.00
2023-03-30T10:15:46.430Z,72.50
2023-03-30T10:18:25.184Z,73.60
2023-03-30T10:20:54.038Z,73.30
2023-03-30T10:23:19.860Z,72.40
2023-03-30T10:25:46.577Z,73.00
2023-03-30T10:28:21.881Z,73.00
2023-03-30T10:30:52.938Z,72.90
2023-03-30T10:33:16.278Z,72.80
2023-03-30T10:35:40.088Z,72.20
2023-03-30T10:38:06.617Z,71.30
2023-03-30T10:40:36.571Z,70.80
2023-03-30T10:43:00.760Z,70.70
2023-03-30T10:45:36.068Z,72.60
2023-03-30T10:48:19.014Z,72.10
2023-03-30T10:50:55.471Z,72.20
2023-03-30T10:53:33.977Z,70.40
2023-03-30T10:56:09.898Z,72.30
2023-03-30T10:58:52.925Z,70.60
2023-03-30T11:01:23.187Z,71.50
2023-03-30T11:03:53.177Z,71.70
2023-03-30T11:06:24.018Z,72.20
2023-03-30T11:08:52.640Z,72.00
2023-03-30T11:11:22.260Z,69.90
2023-03-30T11:13:49.825Z,70.50
2023-03-30T11:16:18.007Z,70.30
2023-03-30T11:18:48.470Z,70.10
2023-03-30T11:21:18.810Z,69.40
2023-03-30T11:23:53.104Z,70.70
2023-03-30T11:26:21.649Z,70.10
2023-03-30T11:28:55.009Z,68.40
2023-03-30T11:31:38.241Z,67.30
2023-03-30T11:34:14.030Z,66.60
2023-03-30T11:36:45.148Z,66.70
2023-03-30T11:39:28.872Z,66.70
2023-03-30T11:42:02.046Z,65.50
2023-03-30T11:44:25.394Z,64.60
2023-03-30T11:47:00.713Z,64.10
2023-03-30T11:49:42.550Z,63.60
2023-03-30T11:52:21.547Z,63.90
2023-03-30T11:55:24.844Z,64.60
2023-03-30T11:57:59.264Z,64.80
2023-03-30T12:00:33.486Z,66.90
2023-03-30T12:03:14.679Z,68.50
2023-03-30T12:05:43.638Z,70.20
2023-03-30T12:08:27.661Z,71.20
2023-03-30T12:10:59.176Z,71.60
2023-03-30T12:13:22.710Z,73.90
2023-03-30T12:15:55.767Z,80.80
2023-03-30T12:18:31.177Z,83.80
2023-03-30T12:21:04.928Z,84.00
2023-03-30T12:23:37.774Z,84.80
2023-03-30T12:26:20.073Z,83.20
2023-03-30T12:29:15.205Z,82.70
2023-03-30T12:32:07.113Z,82.70
2023-03-30T12:34:35.493Z,85.00
2023-03-30T12:37:04.749Z,86.50
2023-03-30T12:39:32.109Z,86.70
2023-03-30T12:42:05.527Z,86.20
2023-03-30T12:44:42.854Z,84.90
2023-03-30T12:47:38.298Z,85.00
2023-03-30T12:50:30.543Z,85.10
2023-03-30T12:53:14.007Z,86.50
2023-03-30T12:55:45.236Z,87.90
2023-03-30T12:58:34.712Z,88.70
2023-03-30T13:01:13.065Z,89.00
2023-03-30T13:03:45.837Z,87.90
2023-03-30T13:06:22.444Z,86.90
2023-03-30T13:08:45.845Z,87.60
2023-03-30T13:11:15.538Z,84.20
2023-03-30T13:13:55.874Z,83.20
2023-03-30T13:17:11.877Z,83.10
2023-03-30T13:19:49.554Z,80.60
2023-03-30T13:22:40.274Z,79.70
2023-03-30T13:25:29.009Z,81.60
2023-03-30T13:27:53.375Z,80.70
2023-03-30T13:30:18.865Z,79.20
2023-03-30T13:32:58.934Z,80.10
2023-03-30T13:35:40.702Z,80.20
2023-03-30T13:38:33.258Z,78.10
2023-03-30T13:41:07.143Z,74.90
2023-03-30T13:43:47.267Z,76.30
2023-03-30T13:46:19.397Z,75.90
2023-03-30T13:48:59.537Z,76.40
2023-03-30T13:51:28.304Z,71.30
2023-03-30T13:53:56.224Z,69.10
2023-03-30T13:56:20.838Z,69.90
2023-03-30T13:58:51.584Z,68.90
2023-03-30T14:01:20.979Z,68.60
2023-03-30T14:03:45.351Z,67.20
2023-03-30T14:06:17.665Z,68.50
2023-03-30T14:08:44.952Z,67.90
2023-03-30T14:11:17.124Z,68.90
2023-03-30T14:13:40.725Z,68.00
2023-03-30T14:16:05.513Z,67.70
2023-03-30T14:18:30.976Z,66.50
2023-03-30T14:20:58.228Z,66.10
2023-03-30T14:23:34.433Z,65.90
2023-03-30T14:26:01.320Z,66.50
2023-03-30T14:28:24.963Z,66.20
2023-03-30T14:30:53.737Z,64.00
2023-03-30T14:33:18.159Z,64.90
2023-03-30T14:35:46.418Z,64.20
2023-03-30T14:38:17.876Z,63.40
2023-03-30T14:40:41.602Z,62.60
2023-03-30T14:43:05.027Z,64.50
2023-03-30T14:45:28.317Z,63.50
2023-03-30T14:47:56.200Z,64.50
2023-03-30T14:50:19.546Z,61.30
2023-03-30T14:52:47.641Z,63.40
2023-03-30T14:55:18.202Z,62.70
2023-03-30T14:57:44.495Z,62.90
2023-03-30T15:00:21.035Z,62.70
2023-03-30T15:02:45.925Z,63.10
2023-03-30T15:05:10.611Z,63.80
2023-03-30T15:07:34.899Z,63.20
2023-03-30T15:10:01.506Z,62.10
2023-03-30T15:12:28.663Z,61.90
2023-03-30T15:14:52.592Z,63.90
2023-03-30T15:17:19.827Z,69.00
2023-03-30T15:19:43.550Z,74.50
2023-03-30T15:22:14.632Z,79.10
2023-03-30T15:24:39.240Z,80.60
2023-03-30T15:27:06.745Z,78.50
2023-03-30T15:29:30.947Z,80.20
2023-03-30T15:32:06.295Z,77.60
2023-03-30T15:34:29.731Z,76.20
2023-03-30T15:36:56.924Z,74.90
2023-03-30T15:39:23.016Z,74.50
2023-03-30T15:41:49.461Z,73.90
2023-03-30T15:44:19.218Z,74.00
2023-03-30T15:46:42.604Z,72.00
2023-03-30T15:49:06.876Z,72.40
2023-03-30T15:51:34.147Z,73.60
2023-03-30T15:54:02.958Z,74.20
2023-03-30T15:56:31.935Z,73.40
2023-03-30T15:58:55.565Z,73.60
2023-03-30T16:01:20.638Z,72.30
2023-03-30T16:03:55.010Z,72.10
2023-03-30T16:06:21.138Z,72.50
2023-03-30T16:08:45.251Z,71.70
2023-03-30T16:11:08.751Z,71.20
2023-03-30T16:13:32.149Z,71.90
2023-03-30T16:15:56.039Z,72.60
2023-03-30T16:18:21.205Z,71.00
2023-03-30T16:20:44.641Z,72.00
2023-03-30T16:23:08.407Z,72.00
2023-03-30T16:25:44.243Z,71.30
2023-03-30T16:28:08.250Z,72.80
2023-03-30T16:30:35.121Z,72.50
2023-03-30T16:32:58.539Z,73.30
2023-03-30T16:35:23.455Z,74.00
2023-03-30T16:37:46.946Z,73.90
2023-03-30T16:40:28.397Z,74.30
2023-03-30T16:42:51.667Z,74.50
2023-03-30T16:45:15.033Z,75.40
2023-03-30T16:47:38.355Z,75.80
2023-03-30T16:50:01.715Z,76.40
2023-03-30T16:52:26.476Z,76.90
2023-03-30T16:54:50.451Z,77.20
2023-03-30T16:57:13.818Z,77.90
2023-03-30T16:59:37.169Z,78.30
2023-03-30T17:02:01.030Z,77.60
2023-03-30T17:04:24.283Z,77.30
2023-03-30T17:06:47.691Z,78.00
2023-03-30T17:09:16.976Z,78.20
2023-03-30T17:11:40.253Z,78.80
2023-03-30T17:14:03.506Z,79.20
2023-03-30T17:16:28.942Z,79.00
2023-03-30T17:18:52.744Z,78.90
2023-03-30T17:21:17.160Z,79.00
2023-03-30T17:23:40.514Z,79.20
2023-03-30T17:26:07.687Z,79.10
2023-03-30T17:28:33.748Z,79.00
2023-03-30T17:31:00.025Z,79.40
2023-03-30T17:33:23.729Z,79.60
2023-03-30T17:35:51.688Z,79.40
2023-03-30T17:38:17.060Z,79.50
2023-03-30T17:40:40.432Z,79.40
2023-03-30T17:43:05.506Z,79.60
2023-03-30T17:45:30.480Z,79.10
2023-03-30T17:47:54.002Z,79.00
2023-03-30T17:50:25.868Z,79.10
2023-03-30T17:52:50.424Z,79.10
2023-03-30T17:55:13.760Z,79.00
2023-03-30T17:57:36.994Z,79.80
2023-03-30T18:00:02.873Z,79.60
2023-03-30T18:02:27.950Z,79.70
2023-03-30T18:04:51.318Z,80.20
2023-03-30T18:07:17.075Z,79.80
2023-03-30T18:09:40.370Z,80.20
2023-03-30T18:12:03.664Z,80.20
2023-03-30T18:14:26.963Z,80.60
2023-03-30T18:16:51.731Z,80.80
2023-03-30T18:19:15.183Z,81.40
2023-03-30T18:21:38.568Z,82.50
2023-03-30T18:24:03.612Z,82.30
2023-03-30T18:26:27.406Z,82.70
2023-03-30T18:28:51.103Z,82.60
2023-03-30T18:31:14.442Z,82.80
2023-03-30T18:33:39.307Z,82.90
2023-03-30T18:36:05.957Z,83.20
2023-03-30T18:38:29.608Z,83.30
2023-03-30T18:40:57.752Z,83.40
2023-03-30T18:43:21.507Z,83.70
2023-03-30T18:45:48.512Z,83.70
2023-03-30T18:48:15.685Z,83.60
2023-03-30T18:50:43.269Z,83.90
2023-03-30T18:53:09.398Z,84.10
2023-03-30T18:55:35.537Z,83.90
2023-03-30T18:57:58.932Z,84.10
2023-03-30T19:00:26.333Z,84.40
2023-03-30T19:02:51.002Z,84.30
2023-03-30T19:05:14.489Z,84.40
2023-03-30T19:07:39.141Z,84.10
2023-03-30T19:10:02.423Z,84.30
2023-03-30T19:12:26.115Z,84.40
2023-03-30T19:14:49.398Z,84.10
2023-03-30T19:17:15.688Z,83.90
2023-03-30T19:19:39.013Z,83.60
2023-03-30T19:22:02.517Z,83.30
2023-03-30T19:24:27.104Z,83.30
2023-03-30T19:26:50.481Z,82.90
2023-03-30T19:29:14.304Z,82.40
2023-03-30T19:31:37.586Z,81.90
2023-03-30T19:34:00.874Z,81.80
2023-03-30T19:36:25.268Z,81.50
2023-03-30T19:38:49.461Z,81.30
2023-03-30T19:41:14.154Z,81.10
2023-03-30T19:43:37.449Z,80.90
2023-03-30T19:46:00.709Z,80.70
2023-03-30T19:48:24.264Z,80.90
2023-03-30T19:50:49.198Z,80.60
2023-03-30T19:53:12.586Z,80.60
2023-03-30T19:55:36.665Z,80.40
2023-03-30T19:58:01.932Z,80.30
2023-03-30T20:00:25.645Z,80.70
2023-03-30T20:02:51.128Z,80.90
2023-03-30T20:05:15.448Z,81.00
2023-03-30T20:07:39.577Z,81.20
2023-03-30T20:10:03.020Z,81.20
2023-03-30T20:12:26.290Z,81.60
2023-03-30T20:14:51.005Z,81.60
2023-03-30T20:17:14.269Z,81.80
2023-03-30T20:19:40.723Z,81.90
2023-03-30T20:22:04.270Z,81.80
2023-03-30T20:24:27.674Z,82.20
2023-03-30T20:26:50.929Z,82.80
2023-03-30T20:29:14.179Z,82.80
2023-03-30T20:31:38.823Z,82.90
2023-03-30T20:34:02.471Z,83.00
2023-03-30T20:36:27.625Z,83.20
2023-03-30T20:38:51.159Z,83.10
2023-03-30T20:41:15.524Z,83.10
2023-03-30T20:43:55.656Z,83.50
2023-03-30T20:46:21.825Z,83.50
2023-03-30T20:48:54.024Z,83.20
2023-03-30T20:51:17.692Z,83.40
2023-03-30T20:53:42.892Z,83.50
2023-03-30T20:56:09.232Z,83.80
2023-03-30T20:58:33.234Z,83.80
2023-03-30T21:00:58.905Z,83.60
2023-03-30T21:03:25.986Z,83.20
2023-03-30T21:06:00.798Z,83.50
2023-03-30T21:08:24.077Z,83.40
2023-03-30T21:10:47.301Z,83.70
2023-03-30T21:13:10.966Z,83.80
2023-03-30T21:15:34.215Z,83.80
2023-03-30T21:17:57.578Z,84.00
2023-03-30T21:20:21.228Z,84.10
2023-03-30T21:22:45.864Z,84.30
2023-03-30T21:25:11.428Z,84.30
2023-03-30T21:27:34.663Z,84.50
2023-03-30T21:29:58.171Z,84.60
2023-03-30T21:32:21.454Z,84.70
2023-03-30T21:34:44.716Z,84.70
2023-03-30T21:37:08.062Z,84.90
2023-03-30T21:39:32.729Z,85.40
2023-03-30T21:41:56.037Z,85.10
2023-03-30T21:44:19.618Z,85.40
2023-03-30T21:46:42.920Z,85.60
2023-03-30T21:49:06.203Z,85.70
2023-03-30T21:51:31.449Z,85.70
2023-03-30T21:53:56.220Z,85.90
2023-03-30T21:56:24.435Z,85.80
2023-03-30T21:58:47.652Z,86.00
2023-03-30T22:01:13.043Z,86.20
2023-03-30T22:03:36.810Z,86.00
2023-03-30T22:06:01.775Z,86.00
2023-03-30T22:08:25.164Z,86.00
2023-03-30T22:10:56.711Z,86.20
2023-03-30T22:13:21.508Z,86.10
2023-03-30T22:15:44.828Z,86.00
2023-03-30T22:18:08.182Z,86.10
2023-03-30T22:20:32.379Z,86.10
2023-03-30T22:22:56.592Z,86.20
2023-03-30T22:25:19.921Z,86.40
2023-03-30T22:27:44.714Z,86.20
2023-03-30T22:30:11.263Z,86.30
2023-03-30T22:32:35.093Z,86.40
2023-03-30T22:34:58.387Z,86.40
2023-03-30T22:37:21.714Z,86.30
2023-03-30T22:39:45.070Z,86.30
2023-03-30T22:42:08.448Z,86.20
2023-03-30T22:44:31.784Z,86.20
2023-03-30T22:46:56.428Z,86.30
2023-03-30T22:49:19.696Z,86.30
2023-03-30T22:51:52.047Z,86.40
2023-03-30T22:54:16.440Z,86.40
2023-03-30T22:56:39.736Z,86.50
2023-03-30T22:59:03.422Z,86.50
2023-03-30T23:01:29.093Z,86.70
2023-03-30T23:03:54.432Z,86.80
2023-03-30T23:06:19.119Z,86.80
2023-03-30T23:08:42.504Z,87.10
2023-03-30T23:11:06.443Z,87.20
2023-03-30T23:13:30.794Z,87.30
2023-03-30T23:15:54.072Z,87.30
2023-03-30T23:18:17.696Z,87.30
2023-03-30T23:20:46.834Z,87.20
2023-03-30T23:23:10.161Z,87.30
2023-03-30T23:25:33.962Z,87.40
2023-03-30T23:27:58.048Z,87.30
2023-03-30T23:30:21.520Z,87.60
2023-03-30T23:32:44.871Z,87.60
2023-03-30T23:35:08.979Z,87.50
2023-03-30T23:37:34.125Z,87.50
2023-03-30T23:39:58.855Z,87.60
2023-03-30T23:42:22.677Z,87.60
2023-03-30T23:44:46.072Z,87.40
2023-03-30T23:47:09.346Z,87.30
2023-03-30T23:49:32.574Z,87.20
2023-03-30T23:51:56.077Z,87.10
2023-03-30T23:54:21.308Z,87.10
2023-03-30T23:56:46.952Z,87.00
2023-03-30T23:59:11.739Z,86.90
